aviador You're here:

KSSC Decoded Metar

SUMTER in SC, USA
Report Time2017-12-17 06:56:00
UTC Time2017-12-17 08:03:34
Flight Rules Old
WindCalm
Visibility9999 m
Phenomena:N/A
Clouds:N/A
Expected CloudBase > 800 ft AGL from Temp-Dew spread
CeilingNone
Temp-1°C (ISA -16)
Dew Point-3°C (86% RH)
AAT-3.4°C
QNH1025 hPa
Density Alt-1,998 ft
Elevation243 ft
Report Wrong Elevation
Raw Report
KSSC 170656Z AUTO 00000KT 10SM CLR M01/M03 A3027 RMK AO2 SLP253
T10091026=

Extra information for KSSC:More info

Metar Taf Metar & Taf Last 4 Metars F.Rules Stats Wind Profile Meteogram Temp Stats Airport Information Weather charts Add Link Nearby VenuesMetar ALERT Operation Metar Decoded Social comments

AIRNAV info for KSSC